createdAt,value
2022-09-17T00:00:48.943Z,48.11
2022-09-17T00:03:15.765Z,47.90
2022-09-17T00:05:42.171Z,48.10
2022-09-17T00:08:10.250Z,47.93
2022-09-17T00:10:39.936Z,48.13
2022-09-17T00:13:06.694Z,48.00
2022-09-17T00:15:33.031Z,47.88
2022-09-17T00:17:59.348Z,48.02
2022-09-17T00:20:25.839Z,47.82
2022-09-17T00:22:52.574Z,47.85
2022-09-17T00:25:19.392Z,47.79
2022-09-17T00:27:47.015Z,47.74
2022-09-17T00:30:13.633Z,47.76
2022-09-17T00:32:40.086Z,47.87
2022-09-17T00:35:06.928Z,47.91
2022-09-17T00:37:33.279Z,47.82
2022-09-17T00:39:59.699Z,47.73
2022-09-17T00:42:26.073Z,47.67
2022-09-17T00:44:54.899Z,47.76
2022-09-17T00:47:24.175Z,47.74
2022-09-17T00:49:52.336Z,47.87
2022-09-17T00:52:20.456Z,47.74
2022-09-17T00:54:52.268Z,47.77
2022-09-17T00:57:18.990Z,47.87
2022-09-17T00:59:45.350Z,47.71
2022-09-17T01:02:12.999Z,47.61
2022-09-17T01:04:39.374Z,47.72
2022-09-17T01:07:08.728Z,47.62
2022-09-17T01:09:39.045Z,47.67
2022-09-17T01:12:13.057Z,47.82
2022-09-17T01:14:46.465Z,47.59
2022-09-17T01:17:29.862Z,47.85
2022-09-17T01:20:11.020Z,47.71
2022-09-17T01:22:44.007Z,47.67
2022-09-17T01:25:17.344Z,47.65
2022-09-17T01:27:56.423Z,47.61
2022-09-17T01:30:36.122Z,47.75
2022-09-17T01:33:08.855Z,47.59
2022-09-17T01:35:39.321Z,47.56
2022-09-17T01:38:12.182Z,47.66
2022-09-17T01:40:41.671Z,47.55
2022-09-17T01:43:10.661Z,47.62
2022-09-17T01:45:40.407Z,47.57
2022-09-17T01:48:09.981Z,47.56
2022-09-17T01:50:37.990Z,47.51
2022-09-17T01:53:06.139Z,47.46
2022-09-17T01:55:35.583Z,47.53
2022-09-17T01:58:04.353Z,47.58
2022-09-17T02:00:31.198Z,47.34
2022-09-17T02:03:01.085Z,47.55
2022-09-17T02:05:29.769Z,47.39
2022-09-17T02:07:57.979Z,47.55
2022-09-17T02:10:27.279Z,47.36
2022-09-17T02:12:56.272Z,47.32
2022-09-17T02:15:25.034Z,47.32
2022-09-17T02:17:54.835Z,47.43
2022-09-17T02:20:24.557Z,47.35
2022-09-17T02:22:52.861Z,47.25
2022-09-17T02:25:22.089Z,47.45
2022-09-17T02:27:50.911Z,47.36
2022-09-17T02:30:17.535Z,47.17
2022-09-17T02:32:43.893Z,47.33
2022-09-17T02:35:10.342Z,47.37
2022-09-17T02:37:38.006Z,47.26
2022-09-17T02:40:04.905Z,47.17
2022-09-17T02:42:37.628Z,47.22
2022-09-17T02:45:06.785Z,47.25
2022-09-17T02:47:42.943Z,47.17
2022-09-17T02:50:17.312Z,47.12
2022-09-17T02:52:54.092Z,46.89
2022-09-17T02:55:24.737Z,47.12
2022-09-17T02:57:54.296Z,46.96
2022-09-17T03:00:22.303Z,47.08
2022-09-17T03:02:50.788Z,47.12
2022-09-17T03:05:18.651Z,46.88
2022-09-17T03:07:44.981Z,47.07
2022-09-17T03:10:12.695Z,46.88
2022-09-17T03:12:39.375Z,47.10
2022-09-17T03:15:05.997Z,47.01
2022-09-17T03:17:32.386Z,46.84
2022-09-17T03:19:58.737Z,47.02
2022-09-17T03:22:25.078Z,46.85
2022-09-17T03:24:51.545Z,46.68
2022-09-17T03:27:19.182Z,46.74
2022-09-17T03:29:45.494Z,46.84
2022-09-17T03:32:12.075Z,46.71
2022-09-17T03:34:38.377Z,46.83
2022-09-17T03:37:04.760Z,46.69
2022-09-17T03:39:31.130Z,46.51
2022-09-17T03:41:57.463Z,46.52
2022-09-17T03:44:25.181Z,46.70
2022-09-17T03:46:51.673Z,46.66
2022-09-17T03:49:18.423Z,46.64
2022-09-17T03:51:45.097Z,46.73
2022-09-17T03:54:11.408Z,46.61
2022-09-17T03:56:37.729Z,46.75
2022-09-17T03:59:04.050Z,46.55
2022-09-17T04:01:31.699Z,46.41
2022-09-17T04:03:58.320Z,46.58
2022-09-17T04:06:24.774Z,46.59
2022-09-17T04:08:51.108Z,46.46
2022-09-17T04:11:17.456Z,46.37
2022-09-17T04:13:43.847Z,46.37
2022-09-17T04:16:10.232Z,46.51
2022-09-17T04:18:37.900Z,46.38
2022-09-17T04:21:04.484Z,46.55
2022-09-17T04:23:30.845Z,46.48
2022-09-17T04:25:57.174Z,46.41
2022-09-17T04:28:23.516Z,46.17
2022-09-17T04:30:49.848Z,46.37
2022-09-17T04:33:16.161Z,46.36
2022-09-17T04:35:43.901Z,46.25
2022-09-17T04:38:10.222Z,46.07
2022-09-17T04:40:36.705Z,46.18
2022-09-17T04:43:03.090Z,46.21
2022-09-17T04:45:29.448Z,46.12
2022-09-17T04:47:56.032Z,46.30
2022-09-17T04:50:22.421Z,46.04
2022-09-17T04:52:50.134Z,46.18
2022-09-17T04:55:16.855Z,46.21
2022-09-17T04:57:45.637Z,46.00
2022-09-17T05:00:12.524Z,46.09
2022-09-17T05:02:38.866Z,46.17
2022-09-17T05:05:05.268Z,46.16
2022-09-17T05:07:31.694Z,46.00
2022-09-17T05:09:59.340Z,45.96
2022-09-17T05:12:25.696Z,45.77
2022-09-17T05:14:52.024Z,45.88
2022-09-17T05:17:18.353Z,45.87
2022-09-17T05:19:44.706Z,45.86
2022-09-17T05:22:11.038Z,45.94
2022-09-17T05:24:37.467Z,45.86
2022-09-17T05:27:05.224Z,45.83
2022-09-17T05:29:31.770Z,45.88
2022-09-17T05:31:58.076Z,45.80
2022-09-17T05:34:24.403Z,45.74
2022-09-17T05:36:50.885Z,45.77
2022-09-17T05:39:17.275Z,45.58
2022-09-17T05:41:43.603Z,45.84
2022-09-17T05:44:14.809Z,45.67
2022-09-17T05:46:43.809Z,45.72
2022-09-17T05:49:10.152Z,45.59
2022-09-17T05:51:36.509Z,45.51
2022-09-17T05:54:02.835Z,45.65
2022-09-17T05:56:29.696Z,45.42
2022-09-17T05:58:56.239Z,45.53
2022-09-17T06:01:24.280Z,45.56
2022-09-17T06:03:50.762Z,45.32
2022-09-17T06:06:17.132Z,45.46
2022-09-17T06:08:43.444Z,45.67
2022-09-17T06:11:09.884Z,45.33
2022-09-17T06:13:36.203Z,45.39
2022-09-17T06:16:03.439Z,45.41
2022-09-17T06:18:31.774Z,45.38
2022-09-17T06:20:58.877Z,45.39
2022-09-17T06:23:25.553Z,45.45
2022-09-17T06:25:52.811Z,45.53
2022-09-17T06:28:19.226Z,45.46
2022-09-17T06:30:45.617Z,45.20
2022-09-17T06:33:12.001Z,45.44
2022-09-17T06:35:39.668Z,45.43
2022-09-17T06:38:06.247Z,45.29
2022-09-17T06:40:32.711Z,45.17
2022-09-17T06:42:59.454Z,45.27
2022-09-17T06:45:25.947Z,45.43
2022-09-17T06:47:52.684Z,45.30
2022-09-17T06:50:19.166Z,45.17
2022-09-17T06:52:49.326Z,45.16
2022-09-17T06:55:15.790Z,45.31
2022-09-17T06:57:42.139Z,45.22
2022-09-17T07:00:09.683Z,45.22
2022-09-17T07:02:36.161Z,45.44
2022-09-17T07:05:02.616Z,45.25
2022-09-17T07:07:29.165Z,45.20
2022-09-17T07:09:56.848Z,45.36
2022-09-17T07:12:23.180Z,45.35
2022-09-17T07:14:49.602Z,45.29
2022-09-17T07:17:15.989Z,45.39
2022-09-17T07:19:42.473Z,45.48
2022-09-17T07:22:08.805Z,45.36
2022-09-17T07:24:35.128Z,45.31
2022-09-17T07:27:02.797Z,45.46
2022-09-17T07:29:29.119Z,45.51
2022-09-17T07:31:55.570Z,45.53
2022-09-17T07:34:21.925Z,45.48
2022-09-17T07:36:48.253Z,45.51
2022-09-17T07:39:14.654Z,45.48
2022-09-17T07:41:41.046Z,45.56
2022-09-17T07:44:08.693Z,45.48
2022-09-17T07:46:35.509Z,45.67
2022-09-17T07:49:02.048Z,45.40
2022-09-17T07:51:28.553Z,45.80
2022-09-17T07:53:55.687Z,45.59
2022-09-17T07:56:22.254Z,45.72
2022-09-17T07:58:48.637Z,45.79
2022-09-17T08:01:16.926Z,45.87
2022-09-17T08:03:47.358Z,45.76
2022-09-17T08:06:14.634Z,45.79
2022-09-17T08:08:41.361Z,45.93
2022-09-17T08:11:08.840Z,45.82
2022-09-17T08:13:35.423Z,45.84
2022-09-17T08:16:03.463Z,45.96
2022-09-17T08:18:31.216Z,45.94
2022-09-17T08:20:58.206Z,45.72
2022-09-17T08:23:25.058Z,45.86
2022-09-17T08:25:52.203Z,45.84
2022-09-17T08:28:18.550Z,45.86
2022-09-17T08:30:44.881Z,45.90
2022-09-17T08:33:11.279Z,45.88
2022-09-17T08:35:39.004Z,45.82
2022-09-17T08:38:05.422Z,46.03
2022-09-17T08:40:31.802Z,45.94
2022-09-17T08:43:00.999Z,46.13
2022-09-17T08:45:27.694Z,46.14
2022-09-17T08:47:55.811Z,46.00
2022-09-17T08:50:27.123Z,45.94
2022-09-17T08:53:01.884Z,46.06
2022-09-17T08:55:30.585Z,46.19
2022-09-17T08:58:01.832Z,46.06
2022-09-17T09:00:33.079Z,46.17
2022-09-17T09:03:06.641Z,46.21
2022-09-17T09:05:39.210Z,46.26
2022-09-17T09:08:14.034Z,46.29
2022-09-17T09:10:45.455Z,46.18
2022-09-17T09:13:15.762Z,46.12
2022-09-17T09:15:43.714Z,46.05
2022-09-17T09:18:16.528Z,46.29
2022-09-17T09:20:47.770Z,46.18
2022-09-17T09:23:18.315Z,46.26
2022-09-17T09:25:51.885Z,46.17
2022-09-17T09:28:25.363Z,46.19
2022-09-17T09:30:58.922Z,46.06
2022-09-17T09:33:27.098Z,46.14
2022-09-17T09:35:53.418Z,45.92
2022-09-17T09:38:28.261Z,46.04
2022-09-17T09:40:56.788Z,45.66
2022-09-17T09:43:46.576Z,45.59
2022-09-17T09:46:28.222Z,45.50
2022-09-17T09:49:02.248Z,45.78
2022-09-17T09:51:35.359Z,45.71
2022-09-17T09:54:12.509Z,45.58
2022-09-17T09:56:47.929Z,45.71
2022-09-17T09:59:14.330Z,45.61
2022-09-17T10:01:41.523Z,45.25
2022-09-17T10:04:15.566Z,45.70
2022-09-17T10:06:42.018Z,45.64
2022-09-17T10:09:12.139Z,45.56
2022-09-17T10:11:38.680Z,45.56
2022-09-17T10:14:14.479Z,45.47
2022-09-17T10:16:40.830Z,45.38
2022-09-17T10:19:12.352Z,45.42
2022-09-17T10:21:39.610Z,45.23
2022-09-17T10:24:11.999Z,45.32
2022-09-17T10:26:39.697Z,45.33
2022-09-17T10:29:11.178Z,45.34
2022-09-17T10:31:46.537Z,45.01
2022-09-17T10:34:19.048Z,45.24
2022-09-17T10:36:46.124Z,45.19
2022-09-17T10:39:27.025Z,45.20
2022-09-17T10:41:55.295Z,45.14
2022-09-17T10:44:22.495Z,44.66
2022-09-17T10:46:48.984Z,44.54
2022-09-17T10:49:22.280Z,44.53
2022-09-17T10:51:48.901Z,44.52
2022-09-17T10:54:24.043Z,44.32
2022-09-17T10:56:52.976Z,44.61
2022-09-17T10:59:31.562Z,44.60
2022-09-17T11:02:04.974Z,44.63
2022-09-17T11:04:41.087Z,44.55
2022-09-17T11:07:16.522Z,44.28
2022-09-17T11:09:52.275Z,44.22
2022-09-17T11:12:24.264Z,44.48
2022-09-17T11:14:57.245Z,44.50
2022-09-17T11:17:40.920Z,44.46
2022-09-17T11:20:16.653Z,44.15
2022-09-17T11:22:50.240Z,44.47
2022-09-17T11:25:24.662Z,44.29
2022-09-17T11:27:57.130Z,44.41
2022-09-17T11:30:24.795Z,44.47
2022-09-17T11:32:59.306Z,44.62
2022-09-17T11:35:26.982Z,44.41
2022-09-17T11:38:00.086Z,44.47
2022-09-17T11:40:32.065Z,44.43
2022-09-17T11:43:02.055Z,44.35
2022-09-17T11:45:33.235Z,44.20
2022-09-17T11:48:03.325Z,44.24
2022-09-17T11:50:31.365Z,44.24
2022-09-17T11:53:04.667Z,44.27
2022-09-17T11:55:33.608Z,44.32
2022-09-17T11:58:02.538Z,44.40
2022-09-17T12:00:33.603Z,44.39
2022-09-17T12:03:02.188Z,44.28
2022-09-17T12:05:31.100Z,44.50
2022-09-17T12:08:00.724Z,44.20
2022-09-17T12:10:36.954Z,43.96
2022-09-17T12:13:10.251Z,44.04
2022-09-17T12:15:39.179Z,44.04
2022-09-17T12:18:31.559Z,44.11
2022-09-17T12:21:00.052Z,44.01
2022-09-17T12:23:31.884Z,43.50
2022-09-17T12:26:05.656Z,44.20
2022-09-17T12:28:35.866Z,44.06
2022-09-17T12:31:06.097Z,44.07
2022-09-17T12:33:35.498Z,44.10
2022-09-17T12:36:08.293Z,44.10
2022-09-17T12:38:47.743Z,43.98
2022-09-17T12:41:19.144Z,44.14
2022-09-17T12:43:52.716Z,44.30
2022-09-17T12:46:27.194Z,43.96
2022-09-17T12:49:03.363Z,43.77
2022-09-17T12:51:43.980Z,43.84
2022-09-17T12:54:16.721Z,43.92
2022-09-17T12:56:51.195Z,44.08
2022-09-17T12:59:17.743Z,43.96
2022-09-17T13:01:49.255Z,43.97
2022-09-17T13:04:43.570Z,44.20
2022-09-17T13:07:19.646Z,43.93
2022-09-17T13:10:00.819Z,44.05
2022-09-17T13:12:31.002Z,43.75
2022-09-17T13:15:04.243Z,43.91
2022-09-17T13:17:35.194Z,43.93
2022-09-17T13:20:03.885Z,43.98
2022-09-17T13:22:30.707Z,43.91
2022-09-17T13:25:03.070Z,43.75
2022-09-17T13:27:29.524Z,43.96
2022-09-17T13:29:57.370Z,43.72
2022-09-17T13:32:37.364Z,43.65
2022-09-17T13:35:18.538Z,43.81
2022-09-17T13:37:55.296Z,43.67
2022-09-17T13:40:23.284Z,43.78
2022-09-17T13:42:51.230Z,43.71
2022-09-17T13:45:18.310Z,43.70
2022-09-17T13:47:50.420Z,43.63
2022-09-17T13:50:25.335Z,43.89
2022-09-17T13:52:53.911Z,44.02
2022-09-17T13:55:32.925Z,43.76
2022-09-17T13:57:59.447Z,43.62
2022-09-17T14:00:37.428Z,43.88
2022-09-17T14:03:18.620Z,43.81
2022-09-17T14:05:44.936Z,43.84
2022-09-17T14:08:26.112Z,43.78
2022-09-17T14:10:54.082Z,43.62
2022-09-17T14:13:26.375Z,43.72
2022-09-17T14:15:55.110Z,43.50
2022-09-17T14:18:36.347Z,43.44
2022-09-17T14:21:11.180Z,43.49
2022-09-17T14:23:42.891Z,43.62
2022-09-17T14:26:14.666Z,43.44
2022-09-17T14:28:44.893Z,43.72
2022-09-17T14:31:17.682Z,43.52
2022-09-17T14:33:44.818Z,43.55
2022-09-17T14:36:14.759Z,43.57
2022-09-17T14:38:42.751Z,43.71
2022-09-17T14:41:19.321Z,43.29
2022-09-17T14:43:49.934Z,43.68
2022-09-17T14:46:19.667Z,43.62
2022-09-17T14:48:45.994Z,43.75
2022-09-17T14:51:22.136Z,43.79
2022-09-17T14:53:49.477Z,43.73
2022-09-17T14:56:19.291Z,43.71
2022-09-17T14:58:47.898Z,43.51
2022-09-17T15:01:21.841Z,43.75
2022-09-17T15:03:48.255Z,43.54
2022-09-17T15:06:19.576Z,43.89
2022-09-17T15:08:45.889Z,43.76
2022-09-17T15:11:13.395Z,43.92
2022-09-17T15:13:46.802Z,43.81
2022-09-17T15:16:17.257Z,43.89
2022-09-17T15:18:47.451Z,43.69
2022-09-17T15:21:23.485Z,43.75
2022-09-17T15:23:51.513Z,43.54
2022-09-17T15:26:22.005Z,43.71
2022-09-17T15:28:49.919Z,43.48
2022-09-17T15:31:17.258Z,43.84
2022-09-17T15:33:44.050Z,43.56
2022-09-17T15:36:17.215Z,43.29
2022-09-17T15:38:43.556Z,43.22
2022-09-17T15:41:21.017Z,43.66
2022-09-17T15:43:47.464Z,43.43
2022-09-17T15:46:23.430Z,43.57
2022-09-17T15:48:49.901Z,43.77
2022-09-17T15:51:22.731Z,43.67
2022-09-17T15:53:51.313Z,43.82
2022-09-17T15:56:19.433Z,43.74
2022-09-17T15:58:53.213Z,43.52
2022-09-17T16:01:34.461Z,43.44
2022-09-17T16:04:06.597Z,43.40
2022-09-17T16:06:34.659Z,43.63
2022-09-17T16:09:01.199Z,43.64
2022-09-17T16:11:28.165Z,43.58
2022-09-17T16:13:55.656Z,43.57
2022-09-17T16:16:23.084Z,43.65
2022-09-17T16:18:49.777Z,43.47
2022-09-17T16:21:18.156Z,43.64
2022-09-17T16:23:44.928Z,43.46
2022-09-17T16:26:13.951Z,43.41
2022-09-17T16:28:40.290Z,43.09
2022-09-17T16:31:06.785Z,43.29
2022-09-17T16:33:33.177Z,43.50
2022-09-17T16:35:59.655Z,43.51
2022-09-17T16:38:27.319Z,43.80
2022-09-17T16:40:53.619Z,43.11
2022-09-17T16:43:19.961Z,43.34
2022-09-17T16:45:57.383Z,43.62
2022-09-17T16:48:23.793Z,43.54
2022-09-17T16:50:50.503Z,43.63
2022-09-17T16:53:16.837Z,43.81
2022-09-17T16:55:44.477Z,43.53
2022-09-17T16:58:10.808Z,43.64
2022-09-17T17:00:37.415Z,43.77
2022-09-17T17:03:04.620Z,43.34
2022-09-17T17:05:36.639Z,43.50
2022-09-17T17:08:06.647Z,43.60
2022-09-17T17:10:33.414Z,43.61
2022-09-17T17:13:01.279Z,43.67
2022-09-17T17:15:27.685Z,43.76
2022-09-17T17:17:54.039Z,43.79
2022-09-17T17:20:20.448Z,43.96
2022-09-17T17:22:46.983Z,43.76
2022-09-17T17:25:14.192Z,43.54
2022-09-17T17:27:40.883Z,43.71
2022-09-17T17:30:09.097Z,43.83
2022-09-17T17:32:36.705Z,43.78
2022-09-17T17:35:03.450Z,43.62
2022-09-17T17:37:29.841Z,43.56
2022-09-17T17:39:56.229Z,43.71
2022-09-17T17:42:22.565Z,43.96
2022-09-17T17:44:48.912Z,43.77
2022-09-17T17:47:16.536Z,44.00
2022-09-17T17:49:42.866Z,43.88
2022-09-17T17:52:09.299Z,44.01
2022-09-17T17:54:35.610Z,43.95
2022-09-17T17:57:01.955Z,43.82
2022-09-17T17:59:28.275Z,44.11
2022-09-17T18:01:54.813Z,44.25
2022-09-17T18:04:22.583Z,44.12
2022-09-17T18:06:49.058Z,44.16
2022-09-17T18:09:15.360Z,44.00
2022-09-17T18:11:41.692Z,43.93
2022-09-17T18:14:11.103Z,44.03
2022-09-17T18:16:37.446Z,43.97
2022-09-17T18:19:03.802Z,44.22
2022-09-17T18:21:31.406Z,43.97
2022-09-17T18:23:58.015Z,44.13
2022-09-17T18:26:25.217Z,44.28
2022-09-17T18:28:52.241Z,44.00
2022-09-17T18:31:21.009Z,44.24
2022-09-17T18:33:47.594Z,44.07
2022-09-17T18:36:13.934Z,44.04
2022-09-17T18:38:41.656Z,43.89
2022-09-17T18:41:10.405Z,43.91
2022-09-17T18:43:37.129Z,44.15
2022-09-17T18:46:03.805Z,44.13
2022-09-17T18:48:35.573Z,44.29
2022-09-17T18:51:04.012Z,43.90
2022-09-17T18:53:31.017Z,44.08
2022-09-17T18:56:01.584Z,44.23
2022-09-17T18:58:27.919Z,44.17
2022-09-17T19:00:54.391Z,44.29
2022-09-17T19:03:20.728Z,44.17
2022-09-17T19:05:47.110Z,43.98
2022-09-17T19:08:13.455Z,44.10
2022-09-17T19:10:39.957Z,44.43
2022-09-17T19:13:07.608Z,44.18
2022-09-17T19:15:34.057Z,44.32
2022-09-17T19:18:00.456Z,44.29
2022-09-17T19:20:26.781Z,44.27
2022-09-17T19:22:53.120Z,44.27
2022-09-17T19:25:19.441Z,44.23
2022-09-17T19:27:46.239Z,44.40
2022-09-17T19:30:13.983Z,44.45
2022-09-17T19:32:44.518Z,44.50
2022-09-17T19:35:10.847Z,44.34
2022-09-17T19:37:37.163Z,44.37
2022-09-17T19:40:03.758Z,44.39
2022-09-17T19:42:30.191Z,44.45
2022-09-17T19:44:56.541Z,44.66
2022-09-17T19:47:24.234Z,44.49
2022-09-17T19:49:50.585Z,44.40
2022-09-17T19:52:16.888Z,44.49
2022-09-17T19:54:43.244Z,44.30
2022-09-17T19:57:09.541Z,44.29
2022-09-17T19:59:35.922Z,44.42
2022-09-17T20:02:02.355Z,44.25
2022-09-17T20:04:30.035Z,44.36
2022-09-17T20:06:56.325Z,44.48
2022-09-17T20:09:22.625Z,44.57
2022-09-17T20:11:48.948Z,44.52
2022-09-17T20:14:15.375Z,44.45
2022-09-17T20:16:41.709Z,44.39
2022-09-17T20:19:08.063Z,44.33
2022-09-17T20:21:35.697Z,44.50
2022-09-17T20:24:02.104Z,44.48
2022-09-17T20:26:28.456Z,44.51
2022-09-17T20:28:54.852Z,44.50
2022-09-17T20:31:22.567Z,44.58
2022-09-17T20:33:51.191Z,44.60
2022-09-17T20:36:18.506Z,44.52
2022-09-17T20:41:33.085Z,44.59
2022-09-17T20:43:59.666Z,44.53
2022-09-17T20:46:29.410Z,44.46
2022-09-17T20:48:56.478Z,44.53
2022-09-17T20:51:23.769Z,44.72
2022-09-17T20:53:51.375Z,44.63
2022-09-17T20:56:18.749Z,44.75
2022-09-17T20:58:46.466Z,44.54
2022-09-17T21:01:14.106Z,44.55
2022-09-17T21:03:40.831Z,44.48
2022-09-17T21:06:07.351Z,44.59
2022-09-17T21:08:33.670Z,44.59
2022-09-17T21:11:04.521Z,44.44
2022-09-17T21:13:30.996Z,44.50
2022-09-17T21:15:57.503Z,44.54
2022-09-17T21:18:24.041Z,44.47
2022-09-17T21:20:50.346Z,44.53
2022-09-17T21:23:16.720Z,44.69
2022-09-17T21:25:43.020Z,44.67
2022-09-17T21:28:10.682Z,44.55
2022-09-17T21:30:36.978Z,44.53
2022-09-17T21:33:03.376Z,44.63
2022-09-17T21:35:29.787Z,44.44
2022-09-17T21:37:56.120Z,44.41
2022-09-17T21:40:22.520Z,44.49
2022-09-17T21:42:48.887Z,44.49
2022-09-17T21:45:16.567Z,44.43
2022-09-17T21:47:42.936Z,44.49
2022-09-17T21:50:09.456Z,44.71
2022-09-17T21:52:35.803Z,44.59
2022-09-17T21:55:02.142Z,44.58
2022-09-17T21:57:28.470Z,44.42
2022-09-17T21:59:54.809Z,44.55
2022-09-17T22:02:22.483Z,44.65
2022-09-17T22:04:48.843Z,44.54
2022-09-17T22:07:15.253Z,44.58
2022-09-17T22:09:41.604Z,44.53
2022-09-17T22:12:07.930Z,44.45
2022-09-17T22:14:34.248Z,44.42
2022-09-17T22:17:00.560Z,44.47
2022-09-17T22:19:28.233Z,44.47
2022-09-17T22:21:55.599Z,44.46
2022-09-17T22:24:22.502Z,44.49
2022-09-17T22:26:55.708Z,44.54
2022-09-17T22:29:23.889Z,44.42
2022-09-17T22:31:50.252Z,44.54
2022-09-17T22:34:18.210Z,44.45
2022-09-17T22:36:45.905Z,44.39
2022-09-17T22:39:12.391Z,44.39
2022-09-17T22:41:39.628Z,44.30
2022-09-17T22:44:06.853Z,44.70
2022-09-17T22:46:33.875Z,44.51
2022-09-17T22:49:00.329Z,44.34
2022-09-17T22:51:27.484Z,44.39
2022-09-17T22:53:55.561Z,44.28
2022-09-17T22:56:22.463Z,44.47
2022-09-17T22:58:49.339Z,44.46
2022-09-17T23:01:17.006Z,44.42
2022-09-17T23:03:43.840Z,44.38
2022-09-17T23:06:11.379Z,44.46
2022-09-17T23:08:37.956Z,44.29
2022-09-17T23:11:06.682Z,44.43
2022-09-17T23:13:33.533Z,44.23
2022-09-17T23:16:00.623Z,44.43
2022-09-17T23:18:27.055Z,44.45
2022-09-17T23:20:57.213Z,44.33
2022-09-17T23:23:25.568Z,44.38
2022-09-17T23:25:51.959Z,44.21
2022-09-17T23:28:19.591Z,44.27
2022-09-17T23:30:45.988Z,44.23
2022-09-17T23:33:13.624Z,44.20
2022-09-17T23:35:39.935Z,44.25
2022-09-17T23:38:06.268Z,44.25
2022-09-17T23:40:32.662Z,44.38
2022-09-17T23:42:59.101Z,44.32
2022-09-17T23:45:26.680Z,44.30
2022-09-17T23:47:52.984Z,44.17
2022-09-17T23:50:19.353Z,44.20
2022-09-17T23:52:45.663Z,44.19
2022-09-17T23:55:11.985Z,44.38
2022-09-17T23:57:38.387Z,44.48
